createdAt,value
2022-11-28T00:00:51.567Z,1000.80
2022-11-28T00:01:51.636Z,1000.76
2022-11-28T00:02:51.642Z,1000.78
2022-11-28T00:03:51.540Z,1000.82
2022-11-28T00:04:51.534Z,1000.81
2022-11-28T00:05:51.517Z,1000.79
2022-11-28T00:06:51.515Z,1000.84
2022-11-28T00:07:51.503Z,1000.77
2022-11-28T00:08:51.463Z,1000.77
2022-11-28T00:09:51.497Z,1000.72
2022-11-28T00:10:51.444Z,1000.77
2022-11-28T00:11:51.465Z,1000.74
2022-11-28T00:12:51.426Z,1000.73
2022-11-28T00:13:51.449Z,1000.74
2022-11-28T00:14:51.415Z,1000.69
2022-11-28T00:15:51.430Z,1000.71
2022-11-28T00:16:51.395Z,1000.70
2022-11-28T00:17:51.388Z,1000.71
2022-11-28T00:18:51.360Z,1000.68
2022-11-28T00:19:51.410Z,1000.64
2022-11-28T00:20:51.327Z,1000.58
2022-11-28T00:21:51.307Z,1000.63
2022-11-28T00:22:51.326Z,1000.62
2022-11-28T00:23:51.318Z,1000.64
2022-11-28T00:24:51.269Z,1000.60
2022-11-28T00:25:51.288Z,1000.57
2022-11-28T00:26:51.248Z,1000.61
2022-11-28T00:27:51.250Z,1000.55
2022-11-28T00:28:51.248Z,1000.61
2022-11-28T00:29:51.281Z,1000.58
2022-11-28T00:30:51.230Z,1000.56
2022-11-28T00:31:51.416Z,1000.52
2022-11-28T00:32:51.182Z,1000.49
2022-11-28T00:33:51.182Z,1000.53
2022-11-28T00:34:51.163Z,1000.52
2022-11-28T00:35:51.179Z,1000.53
2022-11-28T00:36:51.189Z,1000.43
2022-11-28T00:37:51.136Z,1000.48
2022-11-28T00:38:51.148Z,1000.44
2022-11-28T00:39:51.080Z,1000.45
2022-11-28T00:40:51.095Z,1000.43
2022-11-28T00:41:51.061Z,1000.42
2022-11-28T00:42:51.106Z,1000.40
2022-11-28T00:43:51.071Z,1000.47
2022-11-28T00:44:51.032Z,1000.43
2022-11-28T00:45:51.096Z,1000.46
2022-11-28T00:46:51.015Z,1000.43
2022-11-28T00:47:50.992Z,1000.45
2022-11-28T00:48:51.031Z,1000.46
2022-11-28T00:49:50.975Z,1000.46
2022-11-28T00:50:50.953Z,1000.44
2022-11-28T00:51:50.944Z,1000.44
2022-11-28T00:52:50.932Z,1000.40
2022-11-28T00:53:50.937Z,1000.40
2022-11-28T00:54:50.947Z,1000.37
2022-11-28T00:55:50.907Z,1000.38
2022-11-28T00:56:50.896Z,1000.38
2022-11-28T00:57:50.894Z,1000.39
2022-11-28T00:58:50.893Z,1000.31
2022-11-28T00:59:50.876Z,1000.31
2022-11-28T01:00:50.887Z,1000.33
2022-11-28T01:01:50.913Z,1000.30
2022-11-28T01:02:50.894Z,1000.29
2022-11-28T01:03:50.839Z,1000.25
2022-11-28T01:04:50.832Z,1000.26
2022-11-28T01:05:50.777Z,1000.26
2022-11-28T01:06:50.777Z,1000.28
2022-11-28T01:07:50.807Z,1000.32
2022-11-28T01:08:50.758Z,1000.20
2022-11-28T01:09:50.766Z,1000.15
2022-11-28T01:10:50.732Z,1000.19
2022-11-28T01:11:50.718Z,1000.16
2022-11-28T01:12:50.710Z,1000.17
2022-11-28T01:13:50.704Z,1000.22
2022-11-28T01:14:50.731Z,1000.20
2022-11-28T01:15:50.803Z,1000.17
2022-11-28T01:16:50.737Z,1000.10
2022-11-28T01:17:50.651Z,1000.12
2022-11-28T01:18:50.631Z,1000.09
2022-11-28T01:19:50.676Z,1000.06
2022-11-28T01:20:50.638Z,1000.11
2022-11-28T01:21:50.580Z,1000.09
2022-11-28T01:22:50.583Z,1000.01
2022-11-28T01:23:50.587Z,999.97
2022-11-28T01:24:50.549Z,999.95
2022-11-28T01:25:50.603Z,999.93
2022-11-28T01:26:50.556Z,999.88
2022-11-28T01:27:50.523Z,999.90
2022-11-28T01:28:50.515Z,999.87
2022-11-28T01:29:50.492Z,999.84
2022-11-28T01:30:50.499Z,999.86
2022-11-28T01:31:50.565Z,999.83
2022-11-28T01:32:50.451Z,999.77
2022-11-28T01:33:50.447Z,999.73
2022-11-28T01:34:50.439Z,999.74
2022-11-28T01:35:50.412Z,999.73
2022-11-28T01:36:50.425Z,999.76
2022-11-28T01:37:50.455Z,999.71
2022-11-28T01:38:50.385Z,999.69
2022-11-28T01:39:50.375Z,999.66
2022-11-28T01:40:50.402Z,999.67
2022-11-28T01:41:50.343Z,999.64
2022-11-28T01:42:50.374Z,999.55
2022-11-28T01:43:50.358Z,999.52
2022-11-28T01:44:50.323Z,999.55
2022-11-28T01:45:50.326Z,999.56
2022-11-28T01:46:50.407Z,999.47
2022-11-28T01:47:50.294Z,999.53
2022-11-28T01:48:50.283Z,999.45
2022-11-28T01:49:50.268Z,999.47
2022-11-28T01:50:50.267Z,999.41
2022-11-28T01:51:50.268Z,999.43
2022-11-28T01:52:50.228Z,999.42
2022-11-28T01:53:50.239Z,999.42
2022-11-28T01:54:50.209Z,999.34
2022-11-28T01:55:50.177Z,999.32
2022-11-28T01:56:50.164Z,999.31
2022-11-28T01:57:50.187Z,999.31
2022-11-28T01:58:50.167Z,999.30
2022-11-28T01:59:50.142Z,999.30
2022-11-28T02:00:50.182Z,999.34
2022-11-28T02:01:50.115Z,999.40
2022-11-28T02:02:50.130Z,999.26
2022-11-28T02:03:50.098Z,999.28
2022-11-28T02:04:50.110Z,999.21
2022-11-28T02:05:50.082Z,999.20
2022-11-28T02:06:50.094Z,999.19
2022-11-28T02:07:50.081Z,999.23
2022-11-28T02:08:50.022Z,999.16
2022-11-28T02:09:50.037Z,999.14
2022-11-28T02:10:50.014Z,999.11
2022-11-28T02:11:50.003Z,999.13
2022-11-28T02:12:50.044Z,999.14
2022-11-28T02:13:49.983Z,999.09
2022-11-28T02:14:49.992Z,999.05
2022-11-28T02:15:49.977Z,999.01
2022-11-28T02:16:49.952Z,998.94
2022-11-28T02:17:49.926Z,998.94
2022-11-28T02:18:50.691Z,998.95
2022-11-28T02:19:49.911Z,998.94
2022-11-28T02:20:49.924Z,998.87
2022-11-28T02:21:49.860Z,998.94
2022-11-28T02:22:49.877Z,998.92
2022-11-28T02:23:49.865Z,998.90
2022-11-28T02:24:49.848Z,998.92
2022-11-28T02:25:49.823Z,998.89
2022-11-28T02:26:49.852Z,998.92
2022-11-28T02:27:49.817Z,998.89
2022-11-28T02:28:49.796Z,998.85
2022-11-28T02:29:49.883Z,998.81
2022-11-28T02:30:49.762Z,998.82
2022-11-28T02:31:49.778Z,998.79
2022-11-28T02:32:49.808Z,998.80
2022-11-28T02:33:49.725Z,998.84
2022-11-28T02:34:50.059Z,998.77
2022-11-28T02:35:49.704Z,998.72
2022-11-28T02:36:49.748Z,998.75
2022-11-28T02:37:49.675Z,998.78
2022-11-28T02:38:49.674Z,998.73
2022-11-28T02:39:49.675Z,998.76
2022-11-28T02:40:49.645Z,998.74
2022-11-28T02:41:49.640Z,998.79
2022-11-28T02:42:49.616Z,998.79
2022-11-28T02:43:49.656Z,998.82
2022-11-28T02:44:49.597Z,998.88
2022-11-28T02:45:49.617Z,998.92
2022-11-28T02:46:49.607Z,998.81
2022-11-28T02:47:49.570Z,998.76
2022-11-28T02:48:49.601Z,998.63
2022-11-28T02:49:49.587Z,998.64
2022-11-28T02:50:49.548Z,998.75
2022-11-28T02:51:49.508Z,998.74
2022-11-28T02:52:49.510Z,998.83
2022-11-28T02:53:49.479Z,998.83
2022-11-28T02:54:49.542Z,998.88
2022-11-28T02:55:49.477Z,998.88
2022-11-28T02:56:49.464Z,998.83
2022-11-28T02:57:49.449Z,998.83
2022-11-28T02:58:49.428Z,998.82
2022-11-28T02:59:49.441Z,998.69
2022-11-28T03:00:49.473Z,998.74
2022-11-28T03:01:49.430Z,998.69
2022-11-28T03:02:49.416Z,998.69
2022-11-28T03:03:49.372Z,998.70
2022-11-28T03:04:49.359Z,998.70
2022-11-28T03:05:49.354Z,998.68
2022-11-28T03:06:49.392Z,998.70
2022-11-28T03:07:49.371Z,998.65
2022-11-28T03:08:49.332Z,998.60
2022-11-28T03:09:49.282Z,998.57
2022-11-28T03:10:49.294Z,998.60
2022-11-28T03:11:49.280Z,998.59
2022-11-28T03:12:49.271Z,998.61
2022-11-28T03:13:49.275Z,998.69
2022-11-28T03:14:49.245Z,998.65
2022-11-28T03:15:49.287Z,998.72
2022-11-28T03:16:49.212Z,998.68
2022-11-28T03:17:49.201Z,998.64
2022-11-28T03:18:49.226Z,998.62
2022-11-28T03:19:49.203Z,998.56
2022-11-28T03:20:49.194Z,998.61
2022-11-28T03:21:49.145Z,998.64
2022-11-28T03:22:49.148Z,998.64
2022-11-28T03:23:49.137Z,998.73
2022-11-28T03:24:49.135Z,998.78
2022-11-28T03:25:49.118Z,998.79
2022-11-28T03:26:49.128Z,998.76
2022-11-28T03:27:49.087Z,998.76
2022-11-28T03:28:49.055Z,998.83
2022-11-28T03:29:49.089Z,998.79
2022-11-28T03:30:49.060Z,998.77
2022-11-28T03:31:49.115Z,998.79
2022-11-28T03:32:49.015Z,998.79
2022-11-28T03:33:49.005Z,998.71
2022-11-28T03:34:49.031Z,998.66
2022-11-28T03:35:48.976Z,998.59
2022-11-28T03:36:49.027Z,998.63
2022-11-28T03:37:48.990Z,998.62
2022-11-28T03:38:48.971Z,998.64
2022-11-28T03:39:48.972Z,998.61
2022-11-28T03:40:48.932Z,998.66
2022-11-28T03:41:48.898Z,998.65
2022-11-28T03:42:48.935Z,998.68
2022-11-28T03:43:48.903Z,998.72
2022-11-28T03:44:48.902Z,998.76
2022-11-28T03:45:48.863Z,998.73
2022-11-28T03:46:48.935Z,998.75
2022-11-28T03:47:48.880Z,998.69
2022-11-28T03:48:48.821Z,998.72
2022-11-28T03:49:48.852Z,998.69
2022-11-28T03:50:48.839Z,998.64
2022-11-28T03:51:48.822Z,998.71
2022-11-28T03:52:48.810Z,998.65
2022-11-28T03:53:48.762Z,998.67
2022-11-28T03:54:48.766Z,998.60
2022-11-28T03:55:48.832Z,998.57
2022-11-28T03:56:48.758Z,998.55
2022-11-28T03:57:48.740Z,998.48
2022-11-28T03:58:48.758Z,998.50
2022-11-28T03:59:48.716Z,998.54
2022-11-28T04:00:48.754Z,998.44
2022-11-28T04:01:48.734Z,998.40
2022-11-28T04:02:48.689Z,998.44
2022-11-28T04:03:48.656Z,998.40
2022-11-28T04:04:48.649Z,998.37
2022-11-28T04:05:48.622Z,998.30
2022-11-28T04:06:48.644Z,998.29
2022-11-28T04:07:48.815Z,998.25
2022-11-28T04:08:48.597Z,998.21
2022-11-28T04:09:48.587Z,998.25
2022-11-28T04:10:48.559Z,998.25
2022-11-28T04:11:48.554Z,998.26
2022-11-28T04:12:48.563Z,998.21
2022-11-28T04:13:48.569Z,998.22
2022-11-28T04:14:48.525Z,998.17
2022-11-28T04:15:48.512Z,998.16
2022-11-28T04:16:53.600Z,998.15
2022-11-28T04:17:49.519Z,998.18
2022-11-28T04:18:48.487Z,998.15
2022-11-28T04:19:48.456Z,998.13
2022-11-28T04:20:48.476Z,998.09
2022-11-28T04:21:48.443Z,998.08
2022-11-28T04:22:48.460Z,998.07
2022-11-28T04:23:48.460Z,998.09
2022-11-28T04:24:48.417Z,998.12
2022-11-28T04:25:48.402Z,998.10
2022-11-28T04:26:48.378Z,998.12
2022-11-28T04:27:48.371Z,998.18
2022-11-28T04:28:48.426Z,998.19
2022-11-28T04:29:48.336Z,998.17
2022-11-28T04:30:48.318Z,998.22
2022-11-28T04:31:48.352Z,998.22
2022-11-28T04:32:48.327Z,998.22
2022-11-28T04:33:48.279Z,998.22
2022-11-28T04:34:48.332Z,998.20
2022-11-28T04:35:48.259Z,998.23
2022-11-28T04:36:48.261Z,998.19
2022-11-28T04:37:48.270Z,998.18
2022-11-28T04:38:48.230Z,998.22
2022-11-28T04:39:48.363Z,998.18
2022-11-28T04:40:48.214Z,998.19
2022-11-28T04:41:48.217Z,998.16
2022-11-28T04:42:52.634Z,998.22
2022-11-28T04:43:48.186Z,998.18
2022-11-28T04:44:48.151Z,998.17
2022-11-28T04:45:48.223Z,998.20
2022-11-28T04:46:48.121Z,998.14
2022-11-28T04:47:48.145Z,998.16
2022-11-28T04:48:48.144Z,998.15
2022-11-28T04:49:48.129Z,998.14
2022-11-28T04:50:48.083Z,998.16
2022-11-28T04:51:48.072Z,998.20
2022-11-28T04:52:48.079Z,998.15
2022-11-28T04:53:48.086Z,998.10
2022-11-28T04:54:48.064Z,998.14
2022-11-28T04:55:48.079Z,998.09
2022-11-28T04:56:48.013Z,998.10
2022-11-28T04:57:50.629Z,998.07
2022-11-28T04:58:49.027Z,998.04
2022-11-28T04:59:48.013Z,998.15
2022-11-28T05:00:48.052Z,998.10
2022-11-28T05:01:48.017Z,998.06
2022-11-28T05:02:47.948Z,998.08
2022-11-28T05:03:47.960Z,998.05
2022-11-28T05:04:47.969Z,998.08
2022-11-28T05:05:47.947Z,998.04
2022-11-28T05:06:47.968Z,998.05
2022-11-28T05:07:48.010Z,998.06
2022-11-28T05:08:47.885Z,998.04
2022-11-28T05:09:47.898Z,998.13
2022-11-28T05:10:47.860Z,998.08
2022-11-28T05:11:47.849Z,998.08
2022-11-28T05:12:47.850Z,998.04
2022-11-28T05:13:47.868Z,998.00
2022-11-28T05:14:47.829Z,997.95
2022-11-28T05:15:47.807Z,997.94
2022-11-28T05:16:47.862Z,997.93
2022-11-28T05:17:47.757Z,997.91
2022-11-28T05:18:47.812Z,997.90
2022-11-28T05:19:47.739Z,997.89
2022-11-28T05:20:47.759Z,997.88
2022-11-28T05:21:47.730Z,997.87
2022-11-28T05:22:47.717Z,997.85
2022-11-28T05:23:47.703Z,997.87
2022-11-28T05:24:47.726Z,997.82
2022-11-28T05:25:47.703Z,997.79
2022-11-28T05:26:47.691Z,997.73
2022-11-28T05:27:47.665Z,997.69
2022-11-28T05:28:47.620Z,997.64
2022-11-28T05:29:52.077Z,997.66
2022-11-28T05:30:47.658Z,997.66
2022-11-28T05:31:47.682Z,997.68
2022-11-28T05:32:47.621Z,997.72
2022-11-28T05:33:47.618Z,997.65
2022-11-28T05:34:47.573Z,997.68
2022-11-28T05:35:47.542Z,997.66
2022-11-28T05:36:47.564Z,997.65
2022-11-28T05:37:47.523Z,997.72
2022-11-28T05:38:47.532Z,997.70
2022-11-28T05:39:47.504Z,997.70
2022-11-28T05:40:47.492Z,997.70
2022-11-28T05:41:47.508Z,997.73
2022-11-28T05:42:47.497Z,997.71
2022-11-28T05:43:47.473Z,997.63
2022-11-28T05:44:47.457Z,997.63
2022-11-28T05:45:47.515Z,997.65
2022-11-28T05:46:47.435Z,997.65
2022-11-28T05:47:47.394Z,997.66
2022-11-28T05:48:47.425Z,997.70
2022-11-28T05:49:47.385Z,997.65
2022-11-28T05:50:47.408Z,997.64
2022-11-28T05:51:47.365Z,997.67
2022-11-28T05:52:47.358Z,997.65
2022-11-28T05:53:47.338Z,997.66
2022-11-28T05:54:47.367Z,997.68
2022-11-28T05:55:47.297Z,997.72
2022-11-28T05:56:47.340Z,997.72
2022-11-28T05:57:47.300Z,997.82
2022-11-28T05:58:47.275Z,997.85
2022-11-28T05:59:47.259Z,997.90
2022-11-28T06:00:47.281Z,997.84
2022-11-28T06:01:47.263Z,997.91
2022-11-28T06:02:47.245Z,997.86
2022-11-28T06:03:47.217Z,997.90
2022-11-28T06:04:47.344Z,997.87
2022-11-28T06:05:47.233Z,997.82
2022-11-28T06:06:47.211Z,997.84
2022-11-28T06:07:47.200Z,997.85
2022-11-28T06:08:47.150Z,997.88
2022-11-28T06:09:47.179Z,997.92
2022-11-28T06:10:47.174Z,997.97
2022-11-28T06:11:47.153Z,997.95
2022-11-28T06:12:47.129Z,997.95
2022-11-28T06:13:47.103Z,997.95
2022-11-28T06:14:47.103Z,997.93
2022-11-28T06:15:47.073Z,997.89
2022-11-28T06:16:47.154Z,997.84
2022-11-28T06:17:47.085Z,997.85
2022-11-28T06:18:47.039Z,997.88
2022-11-28T06:19:47.012Z,997.88
2022-11-28T06:20:47.014Z,997.91
2022-11-28T06:21:47.052Z,997.88
2022-11-28T06:22:46.989Z,997.88
2022-11-28T06:23:47.044Z,997.91
2022-11-28T06:24:46.975Z,997.89
2022-11-28T06:25:46.945Z,997.87
2022-11-28T06:26:46.935Z,997.75
2022-11-28T06:27:46.937Z,997.77
2022-11-28T06:28:46.946Z,997.81
2022-11-28T06:29:46.954Z,997.67
2022-11-28T06:30:46.900Z,997.67
2022-11-28T06:31:46.916Z,997.63
2022-11-28T06:32:46.873Z,997.63
2022-11-28T06:33:46.868Z,997.57
2022-11-28T06:34:46.855Z,997.54
2022-11-28T06:35:46.855Z,997.56
2022-11-28T06:36:46.815Z,997.53
2022-11-28T06:37:46.818Z,997.49
2022-11-28T06:38:46.834Z,997.53
2022-11-28T06:39:46.802Z,997.51
2022-11-28T06:40:46.765Z,997.46
2022-11-28T06:41:46.756Z,997.50
2022-11-28T06:42:46.737Z,997.44
2022-11-28T06:43:46.770Z,997.44
2022-11-28T06:44:46.757Z,997.44
2022-11-28T06:45:46.758Z,997.44
2022-11-28T06:46:46.715Z,997.39
2022-11-28T06:47:46.692Z,997.44
2022-11-28T06:48:46.699Z,997.42
2022-11-28T06:49:46.710Z,997.43
2022-11-28T06:50:46.667Z,997.36
2022-11-28T06:51:46.699Z,997.36
2022-11-28T06:52:46.640Z,997.41
2022-11-28T06:53:46.622Z,997.43
2022-11-28T06:54:46.649Z,997.38
2022-11-28T06:55:46.579Z,997.39
2022-11-28T06:56:46.613Z,997.36
2022-11-28T06:57:46.570Z,997.33
2022-11-28T06:58:46.584Z,997.32
2022-11-28T06:59:46.558Z,997.35
2022-11-28T07:00:46.591Z,997.29
2022-11-28T07:01:46.674Z,997.32
2022-11-28T07:02:46.574Z,997.30
2022-11-28T07:03:46.490Z,997.27
2022-11-28T07:04:46.512Z,997.32
2022-11-28T07:05:46.463Z,997.31
2022-11-28T07:06:46.497Z,997.24
2022-11-28T07:07:54.166Z,997.30
2022-11-28T07:08:47.455Z,997.29
2022-11-28T07:09:46.422Z,997.24
2022-11-28T07:10:46.425Z,997.25
2022-11-28T07:11:46.435Z,997.21
2022-11-28T07:12:46.415Z,997.19
2022-11-28T07:13:46.391Z,997.17
2022-11-28T07:14:46.371Z,997.18
2022-11-28T07:15:46.366Z,997.20
2022-11-28T07:16:46.403Z,997.05
2022-11-28T07:17:46.352Z,997.17
2022-11-28T07:18:46.355Z,997.05
2022-11-28T07:19:49.351Z,997.05
2022-11-28T07:20:47.294Z,997.09
2022-11-28T07:21:46.309Z,997.05
2022-11-28T07:22:46.324Z,997.07
2022-11-28T07:23:46.277Z,997.07
2022-11-28T07:24:46.265Z,997.01
2022-11-28T07:25:46.392Z,997.01
2022-11-28T07:26:46.245Z,996.98
2022-11-28T07:27:46.236Z,996.94
2022-11-28T07:28:46.212Z,996.96
2022-11-28T07:29:46.193Z,996.95
2022-11-28T07:30:46.189Z,996.95
2022-11-28T07:31:46.277Z,996.94
2022-11-28T07:32:46.170Z,996.99
2022-11-28T07:33:46.156Z,997.00
2022-11-28T07:34:50.006Z,997.01
2022-11-28T07:35:46.115Z,996.98
2022-11-28T07:36:46.170Z,997.02
2022-11-28T07:37:46.089Z,996.96
2022-11-28T07:38:46.121Z,996.93
2022-11-28T07:39:46.067Z,996.91
2022-11-28T07:40:46.059Z,996.92
2022-11-28T07:41:46.048Z,996.88
2022-11-28T07:42:46.047Z,996.85
2022-11-28T07:43:46.052Z,996.82
2022-11-28T07:44:46.027Z,996.84
2022-11-28T07:46:00.141Z,996.79
2022-11-28T07:46:47.008Z,996.81
2022-11-28T07:47:45.991Z,996.86
2022-11-28T07:48:45.994Z,996.80
2022-11-28T07:49:45.964Z,996.81
2022-11-28T07:50:45.983Z,996.75
2022-11-28T07:51:45.964Z,996.74
2022-11-28T07:52:45.931Z,996.78
2022-11-28T07:53:45.915Z,996.72
2022-11-28T07:54:45.916Z,996.75
2022-11-28T07:55:45.895Z,996.68
2022-11-28T07:57:46.861Z,996.72
2022-11-28T07:58:45.854Z,996.70
2022-11-28T07:59:46.031Z,996.67
2022-11-28T08:00:45.825Z,996.72
2022-11-28T08:01:45.882Z,996.70
2022-11-28T08:02:45.820Z,996.72
2022-11-28T08:03:46.022Z,996.71
2022-11-28T08:04:49.595Z,996.68
2022-11-28T08:05:46.782Z,996.73
2022-11-28T08:06:45.748Z,996.79
2022-11-28T08:07:45.841Z,996.86
2022-11-28T08:08:55.234Z,996.90
2022-11-28T08:09:45.952Z,996.99
2022-11-28T08:10:45.715Z,997.11
2022-11-28T08:11:45.718Z,997.25
2022-11-28T08:12:45.696Z,997.29
2022-11-28T08:13:45.701Z,997.37
2022-11-28T08:14:45.928Z,997.42
2022-11-28T08:15:45.645Z,997.40
2022-11-28T08:16:45.733Z,997.38
2022-11-28T08:17:45.791Z,997.40
2022-11-28T08:18:45.617Z,997.30
2022-11-28T08:19:45.619Z,997.32
2022-11-28T08:20:45.602Z,997.34
2022-11-28T08:21:45.570Z,997.33
2022-11-28T08:22:45.589Z,997.34
2022-11-28T08:23:46.589Z,997.29
2022-11-28T08:24:45.770Z,997.33
2022-11-28T08:25:45.529Z,997.32
2022-11-28T08:26:45.513Z,997.32
2022-11-28T08:27:45.530Z,997.40
2022-11-28T08:28:45.489Z,997.45
2022-11-28T08:29:50.398Z,997.44
2022-11-28T08:30:46.478Z,997.38
2022-11-28T08:31:45.449Z,997.36
2022-11-28T08:32:45.452Z,997.24
2022-11-28T08:33:45.458Z,997.27
2022-11-28T08:34:45.447Z,997.22
2022-11-28T08:35:45.398Z,997.14
2022-11-28T08:36:45.421Z,997.12
2022-11-28T08:37:45.384Z,997.18
2022-11-28T08:38:57.841Z,997.16
2022-11-28T08:39:46.405Z,997.13
2022-11-28T08:40:45.340Z,997.17
2022-11-28T08:41:45.374Z,997.17
2022-11-28T08:42:45.561Z,997.22
2022-11-28T08:43:45.328Z,997.19
2022-11-28T08:44:45.313Z,997.22
2022-11-28T08:45:45.423Z,997.26
2022-11-28T08:46:45.321Z,997.18
2022-11-28T08:47:45.262Z,997.16
2022-11-28T08:48:45.242Z,997.16
2022-11-28T08:49:45.531Z,997.17
2022-11-28T08:50:48.033Z,997.19
2022-11-28T08:51:45.258Z,997.25
2022-11-28T08:52:45.204Z,997.25
2022-11-28T08:53:48.755Z,997.20
2022-11-28T08:54:45.441Z,997.22
2022-11-28T08:55:45.187Z,997.23
2022-11-28T08:56:45.206Z,997.14
2022-11-28T08:57:45.164Z,997.13
2022-11-28T08:58:45.154Z,997.11
2022-11-28T08:59:45.491Z,997.10
2022-11-28T09:00:45.117Z,997.15
2022-11-28T09:01:45.175Z,997.22
2022-11-28T09:02:45.129Z,997.23
2022-11-28T09:03:45.105Z,997.23
2022-11-28T09:04:45.079Z,997.28
2022-11-28T09:05:45.100Z,997.22
2022-11-28T09:06:45.051Z,997.22
2022-11-28T09:07:45.113Z,997.22
2022-11-28T09:08:45.024Z,997.31
2022-11-28T09:09:45.280Z,997.25
2022-11-28T09:10:45.041Z,997.20
2022-11-28T09:11:44.987Z,997.31
2022-11-28T09:12:45.001Z,997.26
2022-11-28T09:13:44.976Z,997.33
2022-11-28T09:14:44.959Z,997.36
2022-11-28T09:15:45.001Z,997.31
2022-11-28T09:16:45.078Z,997.30
2022-11-28T09:17:44.929Z,997.28
2022-11-28T09:18:44.899Z,997.29
2022-11-28T09:19:45.159Z,997.28
2022-11-28T09:20:44.893Z,997.23
2022-11-28T09:21:44.859Z,997.34
2022-11-28T09:22:44.890Z,997.34
2022-11-28T09:23:44.884Z,997.39
2022-11-28T09:24:44.828Z,997.39
2022-11-28T09:25:44.853Z,997.36
2022-11-28T09:26:44.823Z,997.44
2022-11-28T09:27:44.805Z,997.45
2022-11-28T09:28:44.855Z,997.39
2022-11-28T09:29:45.167Z,997.39
2022-11-28T09:30:44.799Z,997.40
2022-11-28T09:31:47.546Z,997.36
2022-11-28T09:32:44.787Z,997.35
2022-11-28T09:33:44.727Z,997.30
2022-11-28T09:34:44.787Z,997.29
2022-11-28T09:35:44.711Z,997.29
2022-11-28T09:36:44.713Z,997.25
2022-11-28T09:37:44.673Z,997.25
2022-11-28T09:38:44.698Z,997.28
2022-11-28T09:40:11.595Z,997.24
2022-11-28T09:40:45.700Z,997.26
2022-11-28T09:41:44.656Z,997.22
2022-11-28T09:42:44.624Z,997.20
2022-11-28T09:43:44.630Z,997.22
2022-11-28T09:44:44.628Z,997.21
2022-11-28T09:45:44.620Z,997.24
2022-11-28T09:46:44.626Z,997.19
2022-11-28T09:47:44.599Z,997.21
2022-11-28T09:48:44.569Z,997.23
2022-11-28T09:49:44.969Z,997.25
2022-11-28T09:50:44.541Z,997.25
2022-11-28T09:51:44.550Z,997.25
2022-11-28T09:52:44.782Z,997.22
2022-11-28T09:53:44.518Z,997.23
2022-11-28T09:54:44.507Z,997.21
2022-11-28T09:55:44.473Z,997.23
2022-11-28T09:56:44.477Z,997.21
2022-11-28T09:57:44.478Z,997.24
2022-11-28T09:58:44.431Z,997.27
2022-11-28T09:59:44.859Z,997.30
2022-11-28T10:00:44.768Z,997.27
2022-11-28T10:01:44.402Z,997.26
2022-11-28T10:02:44.402Z,997.27
2022-11-28T10:03:44.467Z,997.29
2022-11-28T10:04:44.443Z,997.28
2022-11-28T10:05:44.354Z,997.30
2022-11-28T10:06:44.429Z,997.25
2022-11-28T10:07:44.394Z,997.24
2022-11-28T10:08:44.328Z,997.32
2022-11-28T10:09:44.721Z,997.23
2022-11-28T10:10:44.315Z,997.29
2022-11-28T10:11:44.325Z,997.23
2022-11-28T10:12:44.305Z,997.22
2022-11-28T10:14:06.547Z,997.20
2022-11-28T10:14:45.372Z,997.23
2022-11-28T10:15:44.261Z,997.20
2022-11-28T10:16:44.288Z,997.20
2022-11-28T10:17:44.226Z,997.17
2022-11-28T10:18:44.231Z,997.17
2022-11-28T10:19:54.183Z,997.10
2022-11-28T10:20:45.217Z,997.11
2022-11-28T10:21:44.164Z,997.14
2022-11-28T10:22:44.157Z,997.14
2022-11-28T10:23:44.158Z,997.14
2022-11-28T10:24:44.143Z,997.15
2022-11-28T10:25:44.155Z,997.16
2022-11-28T10:26:44.126Z,997.22
2022-11-28T10:27:44.120Z,997.17
2022-11-28T10:28:44.089Z,997.14
2022-11-28T10:29:44.475Z,997.09
2022-11-28T10:30:44.179Z,997.14
2022-11-28T10:31:44.059Z,997.05
2022-11-28T10:32:44.036Z,997.03
2022-11-28T10:33:44.057Z,997.08
2022-11-28T10:34:44.032Z,997.03
2022-11-28T10:35:44.043Z,996.94
2022-11-28T10:36:44.174Z,996.95
2022-11-28T10:37:44.001Z,996.89
2022-11-28T10:38:43.967Z,996.90
2022-11-28T10:39:44.266Z,996.91
2022-11-28T10:40:43.971Z,996.88
2022-11-28T10:41:43.948Z,996.87
2022-11-28T10:42:43.918Z,996.85
2022-11-28T10:43:43.932Z,996.87
2022-11-28T10:44:43.921Z,996.89
2022-11-28T10:45:43.964Z,996.91
2022-11-28T10:46:44.042Z,996.87
2022-11-28T10:47:43.884Z,996.86
2022-11-28T10:48:43.849Z,996.88
2022-11-28T10:49:44.179Z,996.84
2022-11-28T10:50:43.841Z,996.80
2022-11-28T10:51:43.844Z,996.88
2022-11-28T10:52:43.860Z,996.81
2022-11-28T10:53:43.831Z,996.85
2022-11-28T10:54:43.796Z,996.84
2022-11-28T10:55:43.782Z,996.77
2022-11-28T10:56:43.810Z,996.82
2022-11-28T10:57:43.770Z,996.76
2022-11-28T10:58:43.756Z,996.77
2022-11-28T10:59:44.078Z,996.79
2022-11-28T11:00:43.723Z,996.72
2022-11-28T11:01:47.401Z,996.76
2022-11-28T11:02:44.706Z,996.67
2022-11-28T11:03:43.690Z,996.64
2022-11-28T11:04:43.742Z,996.69
2022-11-28T11:05:43.673Z,996.69
2022-11-28T11:07:06.828Z,996.68
2022-11-28T11:07:44.712Z,996.75
2022-11-28T11:08:43.635Z,996.73
2022-11-28T11:09:43.933Z,996.69
2022-11-28T11:10:43.615Z,996.69
2022-11-28T11:11:46.636Z,996.69
2022-11-28T11:12:43.581Z,996.73
2022-11-28T11:13:43.589Z,996.70
2022-11-28T11:14:43.590Z,996.71
2022-11-28T11:15:43.577Z,996.70
2022-11-28T11:16:43.591Z,996.69
2022-11-28T11:17:43.521Z,996.72
2022-11-28T11:18:43.531Z,996.64
2022-11-28T11:19:43.653Z,996.66
2022-11-28T11:20:43.478Z,996.67
2022-11-28T11:21:43.487Z,996.68
2022-11-28T11:22:46.116Z,996.67
2022-11-28T11:23:43.470Z,996.69
2022-11-28T11:24:43.428Z,996.65
2022-11-28T11:25:43.439Z,996.66
2022-11-28T11:26:43.424Z,996.69
2022-11-28T11:27:43.433Z,996.65
2022-11-28T11:28:43.393Z,996.68
2022-11-28T11:29:45.054Z,996.75
2022-11-28T11:30:43.431Z,996.67
2022-11-28T11:31:43.370Z,996.72
2022-11-28T11:32:48.660Z,996.82
2022-11-28T11:33:44.355Z,996.75
2022-11-28T11:34:44.373Z,996.78
2022-11-28T11:35:43.393Z,996.76
2022-11-28T11:36:43.306Z,996.72
2022-11-28T11:37:43.325Z,996.71
2022-11-28T11:38:43.315Z,996.68
2022-11-28T11:39:43.481Z,996.72
2022-11-28T11:40:43.258Z,996.70
2022-11-28T11:41:43.234Z,996.73
2022-11-28T11:42:43.257Z,996.69
2022-11-28T11:43:43.259Z,996.70
2022-11-28T11:44:43.226Z,996.65
2022-11-28T11:45:45.118Z,996.67
2022-11-28T11:46:43.228Z,996.67
2022-11-28T11:47:43.197Z,996.65
2022-11-28T11:48:43.160Z,996.68
2022-11-28T11:49:43.301Z,996.67
2022-11-28T11:50:43.138Z,996.66
2022-11-28T11:51:43.123Z,996.67
2022-11-28T11:52:43.177Z,996.67
2022-11-28T11:53:43.109Z,996.66
2022-11-28T11:54:43.075Z,996.66
2022-11-28T11:55:43.077Z,996.70
2022-11-28T11:56:43.099Z,996.73
2022-11-28T11:57:43.082Z,996.71
2022-11-28T11:58:43.079Z,996.69
2022-11-28T11:59:43.276Z,996.74
2022-11-28T12:00:43.028Z,996.72
2022-11-28T12:01:43.051Z,996.70
2022-11-28T12:02:43.078Z,996.68
2022-11-28T12:03:43.024Z,996.70
2022-11-28T12:04:47.047Z,996.66
2022-11-28T12:06:06.519Z,996.69
2022-11-28T12:06:43.941Z,996.67
2022-11-28T12:07:42.965Z,996.67
2022-11-28T12:08:42.918Z,996.69
2022-11-28T12:09:43.197Z,996.67
2022-11-28T12:10:42.918Z,996.62
2022-11-28T12:12:43.883Z,996.67
2022-11-28T12:13:42.874Z,996.64
2022-11-28T12:14:43.236Z,996.65
2022-11-28T12:15:42.918Z,996.63
2022-11-28T12:16:42.978Z,996.63
2022-11-28T12:17:52.491Z,996.69
2022-11-28T12:18:43.812Z,996.63
2022-11-28T12:19:42.826Z,996.69
2022-11-28T12:20:42.774Z,996.67
2022-11-28T12:21:42.780Z,996.64
2022-11-28T12:22:42.843Z,996.59
2022-11-28T12:23:42.745Z,996.57
2022-11-28T12:24:42.747Z,996.61
2022-11-28T12:25:42.723Z,996.60
2022-11-28T12:26:42.723Z,996.61
2022-11-28T12:27:42.722Z,996.58